X  Zatvori METAR Podaci o vazduhoplovstvu        LYNI Nis Airport
Temperatura
6°C Temperatura
3°C Tačka Rose
81% Vlaga



Vetar
0 M/S
1 MPH
2 KM/H
1 KTS



-1°
VRB
Trenutna situacija

Partly Cloudy Delimično Oblačno
Vazdušni pritisak 1020 (hPa) - 30.11 (inHg)
Vidljivost 6 (Milja) - 10 (km)
Aerodrom
Aerodromski kod. LYNI

Lokacija: Nis Airport
Udaljenost: 75 (km)

Metar:
METAR LYNI 291200Z VRB01KT 9999 FEW030 SCT050 06/03 Q1019 BECMG 05010KT

Vreme: 29-11-2022 13:00 CET